Time;durP1;ratioP1;P1;durP2;ratioP2;P2;SDS_P1;SDS_P2;PMS_P1;PMS_P2;Temp;Humidity;BMP_temperature;BMP_pressure;BME280_temperature;BME280_humidity;BME280_pressure;Samples;Min_cycle;Max_cycle;Signal;HPM_P1;HPM_P2
2021/12/24 00:01:08;;;;;;;7.82;4.70;;;;;;;12.41;57.71;101967.88;5068303;28;20068;-71
2021/12/24 00:03:38;;;;;;;7.20;4.05;;;;;;;12.41;57.86;101970.53;5069139;28;20044;-71
2021/12/24 00:06:07;;;;;;;6.85;4.00;;;;;;;12.42;57.82;101969.69;5069346;28;20516;-71
2021/12/24 00:08:35;;;;;;;10.55;6.30;;;;;;;12.44;57.93;101967.09;5068808;28;20046;-71
2021/12/24 00:11:03;;;;;;;8.75;5.47;;;;;;;12.42;58.07;101967.03;5084673;28;20036;-71
2021/12/24 00:13:35;;;;;;;8.77;4.30;;;;;;;12.41;57.85;101973.19;5068952;28;20448;-71
2021/12/24 00:16:08;;;;;;;7.72;4.80;;;;;;;12.41;57.83;101966.97;5068656;28;20485;-71
2021/12/24 00:18:45;;;;;;;9.18;4.72;;;;;;;12.43;57.90;101975.88;5054217;28;20052;-70
2021/12/24 00:35:14;;;;;;;6.88;3.72;;;;;;;12.40;57.19;101966.13;5082642;28;20563;-71
2021/12/24 00:37:43;;;;;;;6.85;3.85;;;;;;;12.42;57.14;101963.50;5067603;28;20041;-70
2021/12/24 00:40:17;;;;;;;6.45;3.08;;;;;;;12.42;57.30;101963.50;5067042;28;20048;-71
2021/12/24 00:42:46;;;;;;;6.90;3.05;;;;;;;12.42;57.53;101964.38;5068627;28;20037;-71
2021/12/24 00:45:17;;;;;;;8.43;3.90;;;;;;;12.44;57.51;101952.09;5067803;28;20044;-70
2021/12/24 00:47:46;;;;;;;10.02;5.38;;;;;;;12.47;57.47;101959.25;5084174;28;20044;-70
2021/12/24 00:50:20;;;;;;;15.38;6.75;;;;;;;12.48;57.47;101953.97;5047335;28;20048;-71
2021/12/24 00:52:51;;;;;;;;;;;;;;;12.47;57.46;101952.16;5049747;28;20090;-70
2021/12/24 00:55:22;;;;;;;15.85;9.18;;;;;;;12.47;57.47;101957.44;5069547;28;19920;-71
2021/12/24 00:57:51;;;;;;;9.85;4.90;;;;;;;12.48;57.40;101959.25;5066544;28;20140;-70
2021/12/24 01:00:24;;;;;;;13.30;5.60;;;;;;;12.49;57.10;101960.16;5069035;28;20488;-70
2021/12/24 01:02:54;;;;;;;10.73;5.97;;;;;;;12.46;57.04;101963.63;5066216;28;20052;-70
2021/12/24 01:05:26;;;;;;;9.25;5.75;;;;;;;12.45;57.07;101958.28;5083721;28;20056;-70
2021/12/24 01:07:54;;;;;;;8.73;5.90;;;;;;;12.44;57.21;101957.38;5067208;28;20067;-71
2021/12/24 01:10:25;;;;;;;13.43;10.00;;;;;;;12.48;57.35;101959.25;5083401;28;20041;-71
2021/12/24 01:12:53;;;;;;;14.88;8.52;;;;;;;12.48;57.40;101958.34;5067033;28;20044;-70
2021/12/24 01:15:21;;;;;;;12.88;8.82;;;;;;;12.50;57.51;101946.06;5066896;28;20095;-70
2021/12/24 01:17:58;;;;;;;9.80;6.90;;;;;;;12.51;57.59;101953.16;5067401;28;20041;-70
2021/12/24 01:20:38;;;;;;;13.30;11.00;;;;;;;12.51;57.64;101956.69;5067229;28;20124;-71
2021/12/24 01:26:08;;;;;;;9.48;5.07;;;;;;;12.47;57.90;101951.28;5071643;28;20040;-71
2021/12/24 01:28:47;;;;;;;10.60;6.40;;;;;;;12.47;57.93;101951.28;5095883;28;20420;-71
2021/12/24 01:39:52;;;;;;;7.72;4.30;;;;;;;12.46;57.73;101934.50;5083520;28;20117;-71
2021/12/24 01:42:45;;;;;;;6.88;4.43;;;;;;;12.51;57.61;101926.66;5087921;28;20048;-71
2021/12/24 01:45:18;;;;;;;6.10;4.22;;;;;;;12.49;57.47;101929.28;5087311;28;20047;-70
2021/12/24 01:47:46;;;;;;;4.60;3.43;;;;;;;12.49;57.49;101923.97;5070747;28;20094;-71
2021/12/24 01:50:15;;;;;;;5.65;3.10;;;;;;;12.53;57.43;101922.31;5087083;28;20048;-71
2021/12/24 01:52:48;;;;;;;9.68;2.97;;;;;;;12.49;57.51;101925.72;5087664;28;20492;-71
2021/12/24 01:55:16;;;;;;;5.97;3.35;;;;;;;12.44;57.52;101924.72;5070851;28;20048;-69
2021/12/24 01:57:44;;;;;;;8.68;4.28;;;;;;;12.43;57.40;101915.88;5036824;28;20044;-70
2021/12/24 02:00:15;;;;;;;5.85;3.95;;;;;;;12.45;57.15;101913.25;5087096;28;20135;-71
2021/12/24 02:02:45;;;;;;;6.25;3.70;;;;;;;12.42;57.05;101906.13;5072149;28;20037;-70
2021/12/24 02:05:14;;;;;;;6.82;3.60;;;;;;;12.45;57.11;101907.97;5070916;28;20057;-71
2021/12/24 02:07:42;;;;;;;6.55;3.97;;;;;;;12.42;57.19;101906.13;5054143;28;20116;-70
2021/12/24 02:10:15;;;;;;;6.10;2.75;;;;;;;12.43;57.29;101902.63;5087274;28;20048;-70
2021/12/24 02:12:43;;;;;;;6.55;3.85;;;;;;;12.44;57.43;101908.81;5086500;28;20459;-70
2021/12/24 02:15:22;;;;;;;4.72;3.53;;;;;;;12.44;57.48;101906.16;5069720;28;20033;-71
2021/12/24 02:18:32;;;;;;;5.32;3.58;;;;;;;12.41;57.60;101906.97;5070365;28;20549;-71
2021/12/24 02:29:07;;;;;;;11.38;5.93;;;;;;;12.42;57.74;101900.81;5070056;28;20126;-71
2021/12/24 02:31:36;;;;;;;7.50;4.70;;;;;;;12.42;57.88;101899.94;5068431;28;20094;-70
2021/12/24 02:34:04;;;;;;;6.57;4.15;;;;;;;12.42;58.00;101899.94;5070855;28;20048;-71
2021/12/24 02:36:33;;;;;;;7.85;2.83;;;;;;;12.41;57.81;101899.03;5069242;28;20043;-71
2021/12/24 02:39:00;;;;;;;5.40;3.53;;;;;;;12.39;57.75;101887.53;5069142;28;20496;-71
2021/12/24 02:41:28;;;;;;;6.13;3.58;;;;;;;12.41;57.74;101892.84;5052805;28;20041;-70
2021/12/24 02:43:56;;;;;;;18.75;11.88;;;;;;;12.46;57.77;101892.13;5087860;28;20663;-71
2021/12/24 02:46:31;;;;;;;13.68;7.55;;;;;;;12.49;57.75;101896.59;5093151;28;20131;-71
2021/12/24 02:49:06;;;;;;;18.58;9.20;;;;;;;12.49;57.80;101899.22;5069681;28;20634;-70
2021/12/24 02:54:22;;;;;;;17.15;10.05;;;;;;;12.44;57.83;101891.19;5059839;28;20519;-70
2021/12/24 02:56:52;;;;;;;13.55;7.85;;;;;;;12.46;57.77;101896.53;5085714;28;20117;-70
2021/12/24 02:59:25;;;;;;;13.65;7.30;;;;;;;12.46;57.86;101888.56;5086225;28;20523;-70
2021/12/24 03:01:56;;;;;;;11.10;7.32;;;;;;;12.47;57.90;101895.69;5069177;28;20119;-70
2021/12/24 03:04:24;;;;;;;16.02;8.88;;;;;;;12.46;57.87;101897.44;5083809;28;20040;-70
2021/12/24 03:06:55;;;;;;;16.40;9.35;;;;;;;12.46;57.90;101888.56;5085832;28;20044;-70
2021/12/24 03:09:23;;;;;;;13.68;7.28;;;;;;;12.41;58.18;101891.09;5086164;28;20063;-71
2021/12/24 03:11:52;;;;;;;11.05;5.28;;;;;;;12.41;58.14;101895.47;5068945;28;20064;-70
2021/12/24 03:14:23;;;;;;;11.68;5.78;;;;;;;12.40;58.33;101899.00;5070293;28;20041;-71
2021/12/24 03:16:56;;;;;;;9.38;5.95;;;;;;;12.35;58.16;101891.81;5069587;28;20063;-70
2021/12/24 03:19:29;;;;;;;6.85;4.35;;;;;;;12.34;58.30;101897.06;5069039;28;20623;-70
2021/12/24 03:22:05;;;;;;;7.88;4.25;;;;;;;12.38;58.27;101899.88;5068093;28;20170;-70
2021/12/24 03:24:36;;;;;;;5.82;3.42;;;;;;;12.40;58.28;101894.63;5068311;28;20041;-70
2021/12/24 03:27:06;;;;;;;10.40;4.68;;;;;;;12.43;58.26;101896.44;5084969;28;20040;-71
2021/12/24 03:29:35;;;;;;;11.30;5.10;;;;;;;12.38;58.24;101894.56;5067792;28;20036;-71
2021/12/24 03:32:04;;;;;;;9.85;5.07;;;;;;;12.37;58.46;101900.72;5067223;28;20128;-72
2021/12/24 03:34:33;;;;;;;6.78;3.85;;;;;;;12.36;58.56;101905.97;5068846;28;20044;-71
2021/12/24 03:37:03;;;;;;;8.30;3.95;;;;;;;12.39;58.61;101911.34;5085306;28;20071;-71
2021/12/24 03:39:33;;;;;;;7.53;3.80;;;;;;;12.40;58.55;101910.50;5068527;28;20041;-71
2021/12/24 03:42:03;;;;;;;7.00;3.83;;;;;;;12.41;58.50;101909.63;5084920;28;20041;-71
2021/12/24 03:44:37;;;;;;;13.18;5.28;;;;;;;12.42;58.56;101910.53;5069773;28;20049;-71
2021/12/24 03:47:10;;;;;;;8.48;4.45;;;;;;;12.42;58.55;101913.16;5067458;28;20047;-71
2021/12/24 03:49:41;;;;;;;8.23;4.30;;;;;;;12.43;58.50;101920.25;5084721;28;20044;-71
2021/12/24 03:54:58;;;;;;;7.65;5.45;;;;;;;12.44;58.44;101919.41;5059055;28;20041;-70
2021/12/24 03:57:38;;;;;;;8.88;5.32;;;;;;;12.38;58.51;101934.28;5052310;28;20147;-72
2021/12/24 04:00:29;;;;;;;7.43;3.70;;;;;;;12.34;58.83;101931.50;5069349;28;20040;-70
2021/12/24 04:03:20;;;;;;;6.53;4.20;;;;;;;12.29;59.06;101930.47;5068345;28;20043;-71
2021/12/24 04:06:06;;;;;;;7.30;3.60;;;;;;;12.26;59.66;101935.72;5069054;28;20044;-71
2021/12/24 04:08:54;;;;;;;7.88;3.63;;;;;;;12.21;60.11;101932.91;5069950;28;20053;-70
2021/12/24 04:11:51;;;;;;;9.52;4.30;;;;;;;12.08;60.69;101929.91;5054717;28;20523;-70
2021/12/24 04:14:19;;;;;;;7.68;3.35;;;;;;;11.96;61.00;101931.34;5084919;28;20046;-71
2021/12/24 04:16:47;;;;;;;5.85;3.72;;;;;;;11.89;61.10;101934.66;5068184;28;20037;-71
2021/12/24 04:24:56;;;;;;;8.30;4.00;;;;;;;11.76;61.67;101932.50;5082345;28;20041;-70
2021/12/24 04:27:27;;;;;;;7.45;4.40;;;;;;;11.75;61.84;101941.28;5084043;28;20124;-70
2021/12/24 04:30:05;;;;;;;8.38;4.68;;;;;;;11.68;62.34;101935.75;5067366;28;20090;-70
2021/12/24 04:32:51;;;;;;;7.50;3.90;;;;;;;11.65;62.40;101943.59;5097214;28;20098;-71
2021/12/24 04:35:38;;;;;;;11.88;10.13;;;;;;;11.69;62.50;101940.16;5074055;28;20496;-71
2021/12/24 04:38:24;;;;;;;9.57;7.90;;;;;;;11.68;62.75;101939.31;5063793;28;20076;-70
2021/12/24 04:52:02;;;;;;;29.55;25.73;;;;;;;11.68;63.38;101949.88;5071982;28;20071;-70
2021/12/24 05:02:58;;;;;;;9.32;5.18;;;;;;;11.43;64.36;101947.31;5054088;28;20445;-70
2021/12/24 05:05:37;;;;;;;7.18;4.68;;;;;;;11.40;64.33;101950.78;5067431;28;20612;-71
2021/12/24 05:10:57;;;;;;;10.93;6.15;;;;;;;11.30;64.58;101945.13;5063557;28;20064;-70
2021/12/24 05:13:27;;;;;;;8.60;4.88;;;;;;;11.25;64.97;101952.03;5066574;28;20044;-71
2021/12/24 05:16:24;;;;;;;8.23;4.57;;;;;;;11.12;65.27;101956.03;5069162;28;20044;-71
2021/12/24 05:21:56;;;;;;;11.02;5.80;;;;;;;11.03;65.44;101958.34;5060969;28;20094;-71
2021/12/24 05:24:26;;;;;;;10.02;6.13;;;;;;;11.04;65.56;101954.88;5074056;28;20040;-71
2021/12/24 05:26:57;;;;;;;10.30;7.03;;;;;;;10.93;65.90;101954.53;5082626;28;20453;-71
2021/12/24 05:29:26;;;;;;;10.50;6.50;;;;;;;10.86;66.07;101960.44;5068884;28;20045;-71
2021/12/24 05:31:55;;;;;;;13.85;9.82;;;;;;;10.74;66.54;101963.59;5069779;28;20047;-71
2021/12/24 05:34:23;;;;;;;14.00;10.32;;;;;;;10.69;66.58;101967.81;5070854;28;20048;-71
2021/12/24 05:36:51;;;;;;;19.52;15.68;;;;;;;10.73;66.60;101966.16;5071719;28;20048;-71
2021/12/24 05:39:22;;;;;;;23.15;17.00;;;;;;;10.73;66.69;101964.41;5070403;28;20470;-71
2021/12/24 05:41:51;;;;;;;19.13;12.68;;;;;;;10.71;66.78;101975.75;5078994;28;20049;-71
2021/12/24 05:44:20;;;;;;;18.27;16.20;;;;;;;10.66;66.87;101980.00;5073383;28;20044;-71
2021/12/24 05:46:55;;;;;;;22.08;19.10;;;;;;;10.68;66.88;101976.59;5087896;28;20183;-71
2021/12/24 05:50:01;;;;;;;14.90;13.18;;;;;;;10.74;66.96;101979.44;5059497;28;20051;-73
2021/12/24 05:52:44;;;;;;;16.42;11.50;;;;;;;10.78;66.88;101970.75;5071874;28;20545;-70
2021/12/24 05:55:50;;;;;;;19.23;15.05;;;;;;;10.79;66.91;101974.28;5063304;28;20093;-71
2021/12/24 05:58:22;;;;;;;17.63;12.80;;;;;;;10.77;67.22;101974.22;5080514;28;20032;-71
2021/12/24 06:00:51;;;;;;;23.17;16.42;;;;;;;10.78;67.11;101978.69;5065502;28;20131;-71
2021/12/24 06:03:25;;;;;;;27.65;19.80;;;;;;;10.89;67.06;101978.16;5065132;28;20047;-71
2021/12/24 06:05:53;;;;;;;23.88;15.68;;;;;;;10.98;66.88;101968.78;5092259;28;20389;-71
2021/12/24 06:08:20;;;;;;;20.70;15.25;;;;;;;11.04;66.96;101976.91;5069811;28;20040;-71
2021/12/24 06:10:48;;;;;;;17.08;12.90;;;;;;;11.10;66.88;101978.84;5072005;28;20111;-71
2021/12/24 06:13:16;;;;;;;22.38;15.55;;;;;;;11.19;66.87;101988.00;5081144;28;20142;-71
2021/12/24 06:15:46;;;;;;;15.70;12.93;;;;;;;11.26;66.95;101982.91;5071740;28;20067;-71
2021/12/24 06:18:21;;;;;;;30.65;24.27;;;;;;;11.35;67.11;101991.16;5070051;28;20127;-70
2021/12/24 06:20:51;;;;;;;28.85;24.70;;;;;;;11.42;66.89;101993.13;5087077;28;20457;-71
2021/12/24 06:23:21;;;;;;;34.65;28.40;;;;;;;11.48;66.92;101995.97;5070214;28;20779;-71
2021/12/24 06:25:50;;;;;;;30.67;25.83;;;;;;;11.58;66.93;101998.94;5070774;28;20206;-72
2021/12/24 06:28:18;;;;;;;26.65;22.98;;;;;;;11.65;67.01;101994.75;5067313;28;20044;-71
2021/12/24 06:30:46;;;;;;;25.95;22.50;;;;;;;11.65;67.05;101996.50;5069333;28;20040;-71
2021/12/24 06:33:13;;;;;;;18.15;14.15;;;;;;;11.62;67.21;101991.97;5070774;28;20086;-71
2021/12/24 06:35:41;;;;;;;14.90;11.98;;;;;;;11.68;67.34;101997.50;5068206;28;20036;-71
2021/12/24 06:38:11;;;;;;;24.60;17.73;;;;;;;11.79;67.24;101996.09;5071221;28;20041;-71
2021/12/24 06:40:39;;;;;;;13.32;10.05;;;;;;;11.83;67.13;101997.97;5072713;28;20052;-71
2021/12/24 06:43:07;;;;;;;16.67;11.68;;;;;;;11.88;67.02;101991.06;5069588;28;20045;-71
2021/12/24 06:45:36;;;;;;;12.82;10.18;;;;;;;11.97;66.94;101993.09;5070831;28;20381;-71
2021/12/24 06:48:05;;;;;;;12.93;9.98;;;;;;;12.08;66.76;101994.31;5071051;28;20527;-71
2021/12/24 06:50:33;;;;;;;14.63;11.45;;;;;;;12.10;66.70;101999.66;5071314;28;20064;-71
2021/12/24 06:53:01;;;;;;;14.52;11.10;;;;;;;12.10;66.69;101997.00;5069317;28;20044;-74
2021/12/24 06:55:30;;;;;;;15.40;10.05;;;;;;;12.15;66.64;102004.22;5072903;28;20041;-71
2021/12/24 06:58:06;;;;;;;15.68;11.65;;;;;;;12.21;66.59;102008.78;5068981;28;20442;-71
2021/12/24 07:00:35;;;;;;;16.40;11.05;;;;;;;12.27;66.42;102007.22;5069338;28;20123;-72
2021/12/24 07:03:05;;;;;;;13.77;10.48;;;;;;;12.33;66.49;102012.72;5068979;28;20409;-71
2021/12/24 07:05:33;;;;;;;16.25;13.80;;;;;;;12.33;66.58;102018.00;5068523;28;20037;-71
2021/12/24 07:08:00;;;;;;;13.48;9.88;;;;;;;12.46;66.97;102008.66;5069104;28;20048;-71
2021/12/24 07:10:30;;;;;;;10.93;8.43;;;;;;;12.70;67.52;102013.72;5070783;28;20045;-71
2021/12/24 07:12:57;;;;;;;12.57;8.68;;;;;;;13.01;68.20;102026.00;5076653;27;20055;-71
2021/12/24 07:15:25;;;;;;;116.15;57.45;;;;;;;13.37;67.87;102024.34;5077667;28;20044;-71
2021/12/24 07:17:53;;;;;;;83.55;47.45;;;;;;;13.75;67.41;102025.25;5076409;28;20048;-71
2021/12/24 07:20:20;;;;;;;73.70;41.97;;;;;;;14.12;66.38;102026.03;5071619;28;20067;-71
2021/12/24 07:22:48;;;;;;;58.00;32.58;;;;;;;14.38;64.67;102021.31;5062389;28;20484;-71
2021/12/24 07:25:15;;;;;;;26.10;15.10;;;;;;;14.62;63.78;102025.38;5069457;28;20101;-71
2021/12/24 07:27:45;;;;;;;15.70;8.93;;;;;;;14.92;63.57;102024.13;5069705;28;20492;-72
2021/12/24 07:30:14;;;;;;;18.27;9.15;;;;;;;15.08;63.74;102026.22;5068538;28;20097;-72
2021/12/24 07:32:43;;;;;;;5.95;3.40;;;;;;;15.30;63.36;102020.38;5085524;28;20667;-71
2021/12/24 07:35:11;;;;;;;4.75;3.50;;;;;;;15.52;62.72;102024.28;5069370;28;20046;-71
2021/12/24 07:37:41;;;;;;;5.28;2.55;;;;;;;15.59;62.14;102017.31;5069825;28;20052;-71
2021/12/24 07:40:10;;;;;;;4.03;2.65;;;;;;;15.71;60.96;102022.81;5069470;28;20047;-71
2021/12/24 07:42:38;;;;;;;6.57;5.97;;;;;;;15.82;60.56;102016.75;5068519;28;20029;-71
2021/12/24 07:45:09;;;;;;;7.88;6.70;;;;;;;15.99;60.08;102009.03;5069455;28;20236;-71
2021/12/24 07:47:40;;;;;;;5.55;4.65;;;;;;;16.09;59.63;102007.38;5067784;28;22302;-71
2021/12/24 07:51:55;;;;;;;6.70;6.05;;;;;;;16.23;59.68;102011.09;5069771;28;20044;-71
2021/12/24 07:53:04;;;;;;;6.65;5.55;;;;;;;16.47;58.94;102006.09;5090117;28;20040;-71
2021/12/24 07:55:32;;;;;;;8.20;4.80;;;;;;;16.64;57.80;102004.53;5089507;28;20036;-71
2021/12/24 07:58:00;;;;;;;8.68;6.05;;;;;;;16.69;57.27;102000.13;5086183;28;20048;-71
2021/12/24 08:00:30;;;;;;;14.05;11.70;;;;;;;16.77;56.32;102005.53;5084599;28;20040;-71
2021/12/24 08:03:01;;;;;;;5.18;3.72;;;;;;;16.90;55.65;102001.22;5081426;28;20048;-71
2021/12/24 08:05:28;;;;;;;6.28;3.40;;;;;;;17.07;55.47;102003.16;5087187;28;20671;-71
2021/12/24 08:07:56;;;;;;;3.60;2.40;;;;;;;17.36;55.03;102007.84;5081403;28;20047;-71
2021/12/24 08:10:27;;;;;;;5.15;3.58;;;;;;;17.37;54.23;102006.97;5071899;28;20051;-71
2021/12/24 08:12:55;;;;;;;5.00;2.40;;;;;;;16.95;53.10;102000.38;5078180;28;20051;-71
2021/12/24 08:15:22;;;;;;;3.88;2.50;;;;;;;16.74;53.33;102000.16;5067973;28;20451;-72
2021/12/24 08:17:51;;;;;;;4.78;2.72;;;;;;;16.69;52.94;102007.22;5069271;28;20124;-71
2021/12/24 08:20:23;;;;;;;6.63;3.33;;;;;;;16.36;52.86;102007.72;5067980;28;20037;-72
2021/12/24 08:22:53;;;;;;;4.45;3.60;;;;;;;16.39;53.05;102007.75;5084326;28;21232;-71
2021/12/24 08:25:21;;;;;;;5.40;2.53;;;;;;;16.66;53.50;102007.22;5068882;28;20037;-71
2021/12/24 08:27:49;;;;;;;4.28;2.22;;;;;;;16.97;53.14;102008.41;5067965;28;20514;-71
2021/12/24 08:30:17;;;;;;;3.55;2.05;;;;;;;17.20;52.53;102005.97;5068613;28;20072;-71
2021/12/24 08:32:45;;;;;;;4.05;3.35;;;;;;;17.30;52.43;102008.69;5068887;28;20059;-71
2021/12/24 08:35:17;;;;;;;4.38;2.30;;;;;;;17.29;52.06;102006.91;5067656;28;20037;-71
2021/12/24 08:37:45;;;;;;;3.35;2.33;;;;;;;17.14;51.89;102009.44;5068848;28;20068;-71
2021/12/24 08:40:14;;;;;;;3.85;2.08;;;;;;;17.28;52.07;102013.13;5068147;28;20053;-71
2021/12/24 08:42:41;;;;;;;3.72;2.28;;;;;;;17.51;52.52;102003.53;5063194;28;20045;-71
2021/12/24 08:45:10;;;;;;;3.05;2.00;;;;;;;17.75;52.57;101999.25;5074195;28;20049;-71
2021/12/24 08:47:38;;;;;;;7.28;4.28;;;;;;;17.96;51.48;101993.16;5073665;28;20052;-71
2021/12/24 08:50:08;;;;;;;7.93;3.22;;;;;;;17.95;51.13;101992.25;5096534;28;20086;-72
2021/12/24 08:52:37;;;;;;;4.47;2.10;;;;;;;18.06;51.03;101993.19;5077789;28;20054;-71
2021/12/24 08:55:06;;;;;;;4.03;2.50;;;;;;;18.05;50.96;101990.53;5079729;28;20048;-71
2021/12/24 08:57:34;;;;;;;5.18;1.88;;;;;;;18.01;50.41;101992.28;5078809;28;20447;-71
2021/12/24 09:00:02;;;;;;;4.10;1.80;;;;;;;18.12;50.86;101992.31;5078236;28;20051;-72
2021/12/24 09:02:29;;;;;;;3.33;1.58;;;;;;;18.22;50.48;101978.13;5079886;28;20479;-71
2021/12/24 09:04:57;;;;;;;3.78;1.65;;;;;;;18.36;49.91;101976.38;5067033;28;20067;-72
2021/12/24 09:07:25;;;;;;;2.70;1.60;;;;;;;18.59;50.00;101957.75;5080152;28;20040;-71
2021/12/24 09:09:54;;;;;;;3.10;1.27;;;;;;;18.80;49.59;101971.16;5081799;28;20526;-71
2021/12/24 09:12:23;;;;;;;2.92;1.45;;;;;;;18.78;49.12;101964.91;5077988;28;20063;-71
2021/12/24 09:14:51;;;;;;;3.80;1.73;;;;;;;18.85;48.59;101960.44;5074904;28;20123;-71
2021/12/24 09:17:19;;;;;;;11.57;7.80;;;;;;;18.96;48.24;101953.34;5096576;28;20108;-71
2021/12/24 09:19:49;;;;;;;4.75;3.00;;;;;;;18.97;48.00;101947.09;5077184;28;20044;-71
2021/12/24 09:22:18;;;;;;;4.25;1.88;;;;;;;18.98;47.66;101949.75;5096241;28;20575;-71
2021/12/24 09:24:49;;;;;;;4.95;2.38;;;;;;;19.02;47.54;101935.50;5078367;28;20041;-71
2021/12/24 09:27:18;;;;;;;4.28;2.20;;;;;;;19.14;46.93;101925.66;5046021;28;20086;-71
2021/12/24 09:29:46;;;;;;;5.55;2.40;;;;;;;19.18;45.87;101924.75;5051895;28;20094;-72
2021/12/24 09:32:13;;;;;;;9.77;4.47;;;;;;;19.23;45.06;101917.63;5077244;28;20048;-71
2021/12/24 09:34:41;;;;;;;5.00;2.58;;;;;;;19.34;44.98;101921.19;5061397;28;20116;-72
2021/12/24 09:37:09;;;;;;;4.47;2.30;;;;;;;19.54;44.60;101918.50;5061075;28;20131;-71
2021/12/24 09:39:37;;;;;;;8.40;5.63;;;;;;;19.57;43.93;101910.44;5061703;28;20037;-72
2021/12/24 09:42:05;;;;;;;5.43;3.00;;;;;;;19.61;43.28;101912.22;5067308;28;20037;-72
2021/12/24 09:44:35;;;;;;;4.15;2.00;;;;;;;19.56;43.29;101908.66;5048383;28;20037;-72
2021/12/24 09:47:02;;;;;;;5.93;2.60;;;;;;;19.57;43.49;101899.72;5064878;28;20067;-73
2021/12/24 09:49:30;;;;;;;4.50;2.65;;;;;;;19.57;43.37;101894.34;5078593;28;20052;-71
2021/12/24 09:51:58;;;;;;;2.63;2.03;;;;;;;19.69;43.42;101891.66;5056964;28;20043;-71
2021/12/24 09:54:26;;;;;;;4.43;2.72;;;;;;;19.79;43.68;101882.66;5078517;28;20131;-71
2021/12/24 09:56:57;;;;;;;4.45;2.42;;;;;;;19.85;43.93;101891.56;5088512;28;20049;-71
2021/12/24 09:59:25;;;;;;;5.68;4.97;;;;;;;19.87;44.30;101884.44;5080217;28;20040;-71
2021/12/24 10:01:57;;;;;;;6.22;4.82;;;;;;;19.92;44.21;101879.03;5079644;28;20048;-71
2021/12/24 10:04:27;;;;;;;4.03;3.30;;;;;;;19.96;44.19;101869.16;5091335;28;20052;-71
2021/12/24 10:06:56;;;;;;;3.67;2.33;;;;;;;19.96;43.97;101866.50;5083574;28;20131;-71
2021/12/24 10:09:30;;;;;;;8.85;7.13;;;;;;;19.93;43.83;101862.06;5090875;28;20044;-71
2021/12/24 10:12:00;;;;;;;7.63;4.65;;;;;;;19.77;44.00;101858.56;5087328;28;20093;-71
2021/12/24 10:14:32;;;;;;;3.63;1.98;;;;;;;19.69;43.59;101859.50;5082564;28;20540;-71
2021/12/24 10:17:02;;;;;;;7.03;2.50;;;;;;;19.61;43.79;101861.31;5064969;28;20040;-71
2021/12/24 10:19:30;;;;;;;3.95;1.83;;;;;;;19.52;43.66;101859.56;5106314;28;20040;-72
2021/12/24 10:21:59;;;;;;;2.30;1.70;;;;;;;19.45;44.02;101850.63;5089437;28;20048;-71
2021/12/24 10:24:28;;;;;;;3.90;1.95;;;;;;;19.41;44.54;101847.97;5091619;28;20059;-71
2021/12/24 10:26:57;;;;;;;7.53;3.72;;;;;;;19.36;44.49;101845.28;5090232;28;20098;-71
2021/12/24 10:29:31;;;;;;;4.18;3.20;;;;;;;19.36;44.40;101847.09;5081716;28;20063;-71
2021/12/24 10:32:11;;;;;;;5.80;2.35;;;;;;;19.30;44.23;101847.97;5071425;28;20044;-71
2021/12/24 10:34:40;;;;;;;2.67;1.70;;;;;;;19.24;44.30;101848.00;5077742;28;20102;-71
2021/12/24 10:37:18;;;;;;;2.95;1.80;;;;;;;19.16;44.38;101835.53;5070107;28;20044;-70
2021/12/24 10:39:49;;;;;;;3.45;2.05;;;;;;;19.11;44.46;101831.06;5070868;28;20177;-71
2021/12/24 10:42:21;;;;;;;4.85;2.28;;;;;;;19.18;44.67;101842.66;5081714;28;20119;-71
2021/12/24 10:44:51;;;;;;;3.33;2.22;;;;;;;19.05;44.52;101835.53;5078115;28;20480;-70
2021/12/24 10:47:22;;;;;;;4.93;2.25;;;;;;;18.74;44.73;101834.69;5105662;28;20040;-70
2021/12/24 10:50:10;;;;;;;3.95;1.83;;;;;;;18.70;45.15;101828.47;5084659;28;20032;-70
2021/12/24 10:55:28;;;;;;;3.38;2.15;;;;;;;18.42;45.88;101820.41;5102033;28;20048;-70
2021/12/24 10:57:57;;;;;;;3.67;2.05;;;;;;;18.21;45.90;101814.16;5077213;28;20055;-70
2021/12/24 11:00:27;;;;;;;2.97;1.67;;;;;;;17.95;46.31;101815.00;5078003;28;20060;-70
2021/12/24 11:02:58;;;;;;;2.78;1.92;;;;;;;17.80;46.84;101814.06;5078792;28;20044;-70
2021/12/24 11:05:29;;;;;;;3.53;2.15;;;;;;;17.60;47.15;101806.84;5082496;28;20048;-70
2021/12/24 11:07:58;;;;;;;2.92;1.67;;;;;;;17.56;47.42;101807.72;5087268;28;20054;-70
2021/12/24 11:10:28;;;;;;;4.47;2.20;;;;;;;17.52;47.44;101802.34;5083357;28;20049;-70
2021/12/24 11:12:58;;;;;;;3.53;1.70;;;;;;;17.49;47.56;101799.69;5081428;28;20055;-70
2021/12/24 11:15:33;;;;;;;5.35;2.08;;;;;;;17.39;48.14;101810.34;5079540;28;20044;-70
2021/12/24 11:18:03;;;;;;;6.65;3.40;;;;;;;17.40;48.34;101807.66;5078947;28;20044;-69
2021/12/24 11:20:33;;;;;;;8.40;4.97;;;;;;;17.45;48.33;101805.91;5082679;28;20090;-70
2021/12/24 11:23:04;;;;;;;3.67;2.10;;;;;;;17.61;48.33;101795.31;5070821;28;20057;-70
2021/12/24 11:25:34;;;;;;;2.08;1.63;;;;;;;17.63;47.91;101791.75;5073220;28;20036;-70
2021/12/24 11:28:03;;;;;;;2.80;1.80;;;;;;;17.53;47.78;101788.13;5068681;28;20071;-71
2021/12/24 11:30:34;;;;;;;3.63;1.75;;;;;;;17.41;48.20;101800.53;5071005;28;20052;-69
2021/12/24 11:33:03;;;;;;;3.00;1.75;;;;;;;17.31;48.39;101791.63;5070480;28;20040;-70
2021/12/24 11:35:32;;;;;;;5.18;2.25;;;;;;;17.30;48.46;101786.25;5070396;28;20047;-70
2021/12/24 11:38:02;;;;;;;3.42;1.90;;;;;;;17.27;48.65;101787.13;5052219;28;20045;-70
2021/12/24 11:40:31;;;;;;;4.40;2.03;;;;;;;17.25;48.57;101786.25;5088922;28;20044;-70
2021/12/24 11:43:03;;;;;;;4.25;2.20;;;;;;;17.17;48.76;101792.41;5069157;28;20037;-70
2021/12/24 11:45:32;;;;;;;4.10;1.90;;;;;;;17.22;48.85;101791.56;5070533;28;20485;-70
2021/12/24 11:48:01;;;;;;;4.60;1.90;;;;;;;17.10;48.97;101791.50;5068660;28;20044;-70
2021/12/24 11:50:31;;;;;;;5.03;2.08;;;;;;;16.99;48.99;101787.88;5069943;28;20400;-70
2021/12/24 11:53:02;;;;;;;2.63;1.70;;;;;;;16.95;49.06;101773.63;5068249;28;20113;-70
2021/12/24 11:55:34;;;;;;;2.28;2.03;;;;;;;16.92;49.19;101775.41;5068293;28;20119;-70
2021/12/24 11:58:05;;;;;;;5.95;1.92;;;;;;;16.72;49.63;101781.50;5069715;28;20052;-72
2021/12/24 12:00:37;;;;;;;2.30;1.90;;;;;;;16.55;49.94;101769.75;5069733;28;20487;-71
2021/12/24 12:03:04;;;;;;;9.90;2.10;;;;;;;16.47;50.13;101771.50;5084278;28;20045;-70
2021/12/24 12:05:36;;;;;;;2.17;1.52;;;;;;;16.39;50.38;101772.31;5070020;28;20098;-71
2021/12/24 12:08:39;;;;;;;2.75;1.80;;;;;;;16.32;50.72;101779.38;5068671;28;20055;-70
2021/12/24 12:11:21;;;;;;;2.22;1.60;;;;;;;16.25;50.83;101775.75;5067606;28;20067;-70
2021/12/24 12:13:52;;;;;;;2.72;1.73;;;;;;;16.21;51.02;101781.94;5068785;28;20086;-70
2021/12/24 12:16:24;;;;;;;3.55;2.13;;;;;;;16.13;50.96;101783.66;5084411;28;20045;-70
2021/12/24 12:19:11;;;;;;;3.70;2.00;;;;;;;16.09;50.84;101778.25;5067593;28;20405;-70
2021/12/24 12:21:42;;;;;;;2.92;1.95;;;;;;;15.95;51.20;101773.69;5083901;28;20040;-70
2021/12/24 12:27:00;;;;;;;3.22;2.22;;;;;;;15.84;51.67;101778.03;5067210;28;20055;-70
2021/12/24 12:29:44;;;;;;;2.55;1.70;;;;;;;15.84;51.48;101782.47;5066366;28;20052;-70
2021/12/24 12:32:43;;;;;;;4.03;2.10;;;;;;;15.76;51.43;101769.06;5054135;28;20043;-71
2021/12/24 12:35:12;;;;;;;4.00;2.22;;;;;;;15.69;51.46;101780.50;5066769;28;20281;-70
2021/12/24 12:37:49;;;;;;;3.67;2.17;;;;;;;15.69;51.54;101777.84;5066346;28;20068;-70
2021/12/24 12:40:35;;;;;;;3.90;2.67;;;;;;;15.65;51.66;101776.03;5065757;28;20068;-70
2021/12/24 12:43:10;;;;;;;8.07;3.08;;;;;;;15.51;51.98;101773.19;5099569;28;20049;-71
2021/12/24 12:46:01;;;;;;;6.22;3.20;;;;;;;15.47;52.71;101776.69;5086316;28;20119;-70
2021/12/24 12:48:51;;;;;;;5.05;2.70;;;;;;;15.44;52.77;101781.97;5081688;28;20370;-70
2021/12/24 12:51:21;;;;;;;8.63;3.00;;;;;;;15.43;52.77;101780.19;5067292;28;20040;-70
2021/12/24 12:53:52;;;;;;;4.80;2.35;;;;;;;15.49;53.12;101777.59;5083344;28;20124;-70
2021/12/24 12:56:26;;;;;;;3.40;1.83;;;;;;;15.48;53.14;101775.84;5066671;28;20052;-70
2021/12/24 12:58:59;;;;;;;7.13;2.50;;;;;;;15.48;53.03;101786.47;5065866;28;20076;-70